Terminal Aerodrome Forecast
Issued by NWS Portland, OR

Home | Current Version | Previous Version | Text Only | Print | Product List | Glossary On
Versions: 1 2 3 4 5 6 7 8 9 10 11 12 13 14 15 16 17 18 19
000
FTUS46 KPQR 250525 CCA
TAFAST
TAF COR
KAST 250525Z 2505/2606 17004KT P6SM BKN022
     FM250700 17004KT P6SM OVC015
     FM251400 18008KT 5SM -RA SCT015 BKN025
     FM251900 18015G25KT 5SM -RA SCT015 BKN025=

USA.gov is the U.S. government's official web portal to all federal, state and local government web resources and services.